createdAt,value
2023-05-09T00:00:20.313Z,101060.03
2023-05-09T00:02:48.688Z,101064.88
2023-05-09T00:05:17.476Z,101057.78
2023-05-09T00:07:45.537Z,101052.41
2023-05-09T00:10:15.259Z,101044.31
2023-05-09T00:12:44.258Z,101045.16
2023-05-09T00:15:13.192Z,101042.47
2023-05-09T00:17:41.303Z,101047.00
2023-05-09T00:20:12.509Z,101037.38
2023-05-09T00:22:41.839Z,101042.75
2023-05-09T00:25:11.996Z,101042.75
2023-05-09T00:27:41.785Z,101046.47
2023-05-09T00:30:10.806Z,101043.50
2023-05-09T00:32:40.373Z,101038.25
2023-05-09T00:35:10.243Z,101051.03
2023-05-09T00:37:38.366Z,101036.59
2023-05-09T00:40:09.447Z,101038.34
2023-05-09T00:42:37.893Z,101040.97
2023-05-09T00:45:08.566Z,101040.56
2023-05-09T00:47:36.697Z,101050.06
2023-05-09T00:50:05.265Z,101046.09
2023-05-09T00:52:35.176Z,101038.47
2023-05-09T00:55:03.497Z,101039.06
2023-05-09T00:57:31.400Z,101035.13
2023-05-09T00:59:59.260Z,101028.91
2023-05-09T01:02:29.454Z,101033.16
2023-05-09T01:04:58.602Z,101025.69
2023-05-09T01:07:36.087Z,101029.38
2023-05-09T01:10:11.047Z,101026.09
2023-05-09T01:12:47.871Z,101025.53
2023-05-09T01:15:25.155Z,101019.19
2023-05-09T01:17:59.645Z,101014.94
2023-05-09T01:20:33.839Z,101011.13
2023-05-09T01:23:27.002Z,101005.03
2023-05-09T01:26:04.739Z,101010.56
2023-05-09T01:28:45.866Z,100999.06
2023-05-09T01:31:17.354Z,100996.38
2023-05-09T01:33:47.919Z,100998.09
2023-05-09T01:36:18.493Z,101002.63
2023-05-09T01:38:50.038Z,100994.25
2023-05-09T01:41:20.058Z,100993.97
2023-05-09T01:43:50.836Z,100990.13
2023-05-09T01:46:22.064Z,100996.34
2023-05-09T01:48:51.715Z,100992.09
2023-05-09T01:51:21.676Z,100989.66
2023-05-09T01:53:51.368Z,100984.97
2023-05-09T01:56:21.654Z,100990.38
2023-05-09T01:58:51.338Z,100979.28
2023-05-09T02:01:21.964Z,100974.44
2023-05-09T02:03:52.615Z,100971.31
2023-05-09T02:06:23.304Z,100969.72
2023-05-09T02:08:52.266Z,100966.56
2023-05-09T02:11:20.182Z,100966.13
2023-05-09T02:13:48.227Z,100966.13
2023-05-09T02:16:17.318Z,100965.16
2023-05-09T02:18:47.161Z,100967.50
2023-05-09T02:21:15.288Z,100962.44
2023-05-09T02:23:43.279Z,100965.66
2023-05-09T02:26:11.676Z,100961.56
2023-05-09T02:28:40.945Z,100953.38
2023-05-09T02:31:11.118Z,100961.06
2023-05-09T02:33:40.283Z,100953.66
2023-05-09T02:36:10.968Z,100958.75
2023-05-09T02:38:39.103Z,100957.06
2023-05-09T02:41:07.330Z,100956.28
2023-05-09T02:43:35.395Z,100952.75
2023-05-09T02:46:03.696Z,100957.84
2023-05-09T02:48:31.677Z,100947.06
2023-05-09T02:50:59.713Z,100954.84
2023-05-09T02:53:29.385Z,100944.44
2023-05-09T02:55:57.427Z,100946.56
2023-05-09T02:58:25.530Z,100944.53
2023-05-09T03:00:53.789Z,100945.94
2023-05-09T03:03:22.539Z,100946.22
2023-05-09T03:05:50.792Z,100940.38
2023-05-09T03:08:18.874Z,100939.25
2023-05-09T03:10:48.952Z,100931.84
2023-05-09T03:13:17.090Z,100934.09
2023-05-09T03:15:45.201Z,100934.09
2023-05-09T03:18:13.266Z,100937.19
2023-05-09T03:20:41.330Z,100937.88
2023-05-09T03:23:10.183Z,100939.25
2023-05-09T03:25:38.263Z,100942.50
2023-05-09T03:28:08.232Z,100940.81
2023-05-09T03:30:36.778Z,100933.94
2023-05-09T03:33:06.403Z,100936.81
2023-05-09T03:35:34.539Z,100937.19
2023-05-09T03:38:02.625Z,100933.09
2023-05-09T03:40:30.689Z,100922.88
2023-05-09T03:42:58.739Z,100925.56
2023-05-09T03:45:28.235Z,100925.41
2023-05-09T03:47:56.385Z,100919.00
2023-05-09T03:50:24.505Z,100907.06
2023-05-09T03:52:52.513Z,100904.38
2023-05-09T03:55:20.573Z,100913.13
2023-05-09T03:57:48.727Z,100901.50
2023-05-09T04:00:17.535Z,100904.03
2023-05-09T04:02:47.510Z,100901.19
2023-05-09T04:05:16.214Z,100900.03
2023-05-09T04:07:44.784Z,100899.19
2023-05-09T04:10:13.300Z,100896.50
2023-05-09T04:12:42.013Z,100899.19
2023-05-09T04:15:11.434Z,100896.31
2023-05-09T04:17:39.699Z,100887.25
2023-05-09T04:20:11.219Z,100879.28
2023-05-09T04:22:39.169Z,100877.63
2023-05-09T04:25:08.571Z,100875.59
2023-05-09T04:27:36.537Z,100873.59
2023-05-09T04:30:05.207Z,100879.84
2023-05-09T04:32:33.156Z,100887.75
2023-05-09T04:35:01.410Z,100882.38
2023-05-09T04:37:31.574Z,100881.53
2023-05-09T04:39:59.970Z,100878.81
2023-05-09T04:42:28.036Z,100878.81
2023-05-09T04:44:56.105Z,100874.28
2023-05-09T04:47:24.154Z,100879.53
2023-05-09T04:49:52.263Z,100872.41
2023-05-09T04:52:20.485Z,100864.50
2023-05-09T04:54:49.961Z,100879.38
2023-05-09T04:57:19.066Z,100865.03
2023-05-09T04:59:47.236Z,100860.78
2023-05-09T05:02:20.529Z,100862.88
2023-05-09T05:05:21.902Z,100852.69
2023-05-09T05:07:53.629Z,100862.34
2023-05-09T05:11:19.642Z,100863.97
2023-05-09T05:14:13.276Z,100857.22
2023-05-09T05:16:41.624Z,100860.06
2023-05-09T05:19:10.423Z,100860.75
2023-05-09T05:21:39.090Z,100865.13
2023-05-09T05:24:07.964Z,100865.31
2023-05-09T05:28:59.276Z,100868.69
2023-05-09T05:30:18.697Z,100875.59
2023-05-09T05:32:47.235Z,100870.53
2023-05-09T05:35:18.442Z,100867.13
2023-05-09T05:41:57.642Z,100864.06
2023-05-09T05:44:53.192Z,100865.78
2023-05-09T05:47:24.314Z,100859.38
2023-05-09T05:49:54.021Z,100864.41
2023-05-09T05:52:24.065Z,100863.19
2023-05-09T05:54:52.330Z,100862.25
2023-05-09T05:57:29.203Z,100873.97
2023-05-09T05:59:57.564Z,100870.88
2023-05-09T06:02:27.339Z,100863.78
2023-05-09T06:04:56.129Z,100857.31
2023-05-09T06:07:24.389Z,100861.56
2023-05-09T06:09:53.081Z,100870.78
2023-05-09T06:12:27.991Z,100864.72
2023-05-09T06:14:57.192Z,100850.88
2023-05-09T06:17:27.290Z,100858.56
2023-05-09T06:19:55.659Z,100864.41
2023-05-09T06:22:23.679Z,100864.03
2023-05-09T06:24:51.648Z,100863.78
2023-05-09T06:27:19.861Z,100864.09
2023-05-09T06:29:47.991Z,100863.78
2023-05-09T06:32:18.725Z,100861.06
2023-05-09T06:34:48.319Z,100855.56
2023-05-09T06:37:16.316Z,100859.09
2023-05-09T06:39:44.386Z,100854.38
2023-05-09T06:42:12.304Z,100861.16
2023-05-09T06:44:40.471Z,100867.50
2023-05-09T06:47:08.473Z,100862.31
2023-05-09T06:49:36.914Z,100861.31
2023-05-09T06:52:06.387Z,100854.47
2023-05-09T06:54:34.415Z,100853.31
2023-05-09T06:57:02.446Z,100855.72
2023-05-09T06:59:30.352Z,100849.00
2023-05-09T07:01:58.947Z,100859.06
2023-05-09T07:04:27.108Z,100856.38
2023-05-09T07:06:55.039Z,100859.25
2023-05-09T07:09:27.969Z,100854.47
2023-05-09T07:11:56.144Z,100848.22
2023-05-09T07:14:24.103Z,100854.63
2023-05-09T07:16:53.700Z,100851.28
2023-05-09T07:19:23.302Z,100853.00
2023-05-09T07:21:51.314Z,100852.00
2023-05-09T07:24:19.374Z,100849.16
2023-05-09T07:26:48.973Z,100841.22
2023-05-09T07:29:17.695Z,100834.53
2023-05-09T07:31:45.961Z,100843.63
2023-05-09T07:34:14.099Z,100846.72
2023-05-09T07:36:42.171Z,100834.94
2023-05-09T07:39:10.819Z,100842.00
2023-05-09T07:41:38.936Z,100834.22
2023-05-09T07:44:09.606Z,100840.00
2023-05-09T07:46:38.652Z,100841.00
2023-05-09T07:49:06.726Z,100836.63
2023-05-09T07:51:34.810Z,100826.38
2023-05-09T07:54:02.863Z,100839.75
2023-05-09T07:56:31.033Z,100825.63
2023-05-09T07:58:59.019Z,100831.72
2023-05-09T08:01:28.417Z,100832.56
2023-05-09T08:03:56.423Z,100831.34
2023-05-09T08:06:24.762Z,100819.16
2023-05-09T08:08:52.646Z,100825.06
2023-05-09T08:11:20.585Z,100828.91
2023-05-09T08:13:48.455Z,100828.53
2023-05-09T08:16:18.101Z,100831.97
2023-05-09T08:18:47.580Z,100831.13
2023-05-09T08:21:15.578Z,100825.34
2023-05-09T08:23:43.482Z,100837.34
2023-05-09T08:26:11.376Z,100845.00
2023-05-09T08:28:39.380Z,100830.00
2023-05-09T08:31:07.341Z,100836.50
2023-05-09T08:33:35.325Z,100831.97
2023-05-09T08:36:05.009Z,100831.69
2023-05-09T08:38:32.859Z,100832.84
2023-05-09T08:41:04.075Z,100829.72
2023-05-09T08:43:34.533Z,100831.38
2023-05-09T08:46:05.843Z,100829.69
2023-05-09T08:48:37.670Z,100822.44
2023-05-09T08:51:08.657Z,100818.28
2023-05-09T08:53:37.225Z,100813.84
2023-05-09T08:56:05.557Z,100809.97
2023-05-09T08:58:34.648Z,100806.19
2023-05-09T09:01:06.491Z,100801.38
2023-05-09T09:03:34.795Z,100796.25
2023-05-09T09:06:03.080Z,100796.66
2023-05-09T09:08:32.496Z,100794.16
2023-05-09T09:11:00.549Z,100784.41
2023-05-09T09:13:29.856Z,100785.81
2023-05-09T09:16:00.444Z,100791.38
2023-05-09T09:18:31.290Z,100786.47
2023-05-09T09:21:06.275Z,100794.56
2023-05-09T09:23:35.976Z,100789.81
2023-05-09T09:26:04.984Z,100782.72
2023-05-09T09:28:33.030Z,100781.03
2023-05-09T09:31:01.393Z,100783.53
2023-05-09T09:33:30.739Z,100778.16
2023-05-09T09:35:59.835Z,100784.41
2023-05-09T09:38:28.046Z,100782.03
2023-05-09T09:40:58.426Z,100776.09
2023-05-09T09:43:29.864Z,100779.34
2023-05-09T09:45:58.308Z,100784.91
2023-05-09T09:48:26.915Z,100786.59
2023-05-09T09:50:57.109Z,100780.19
2023-05-09T09:53:30.255Z,100790.97
2023-05-09T09:56:00.126Z,100786.06
2023-05-09T09:58:28.383Z,100783.34
2023-05-09T10:01:07.785Z,100785.75
2023-05-09T10:03:40.958Z,100784.06
2023-05-09T10:06:12.381Z,100777.84
2023-05-09T10:08:40.549Z,100781.38
2023-05-09T10:11:10.984Z,100788.16
2023-05-09T10:13:39.408Z,100786.34
2023-05-09T10:16:09.805Z,100781.81
2023-05-09T10:18:39.050Z,100779.25
2023-05-09T10:21:11.152Z,100778.63
2023-05-09T10:23:43.869Z,100774.69
2023-05-09T10:26:18.663Z,100771.22
2023-05-09T10:28:49.085Z,100776.13
2023-05-09T10:31:23.033Z,100767.69
2023-05-09T10:33:52.247Z,100767.69
2023-05-09T10:36:21.844Z,100753.34
2023-05-09T10:38:50.984Z,100762.28
2023-05-09T10:41:22.055Z,100757.25
2023-05-09T10:43:50.207Z,100760.59
2023-05-09T10:46:18.840Z,100756.75
2023-05-09T10:48:48.039Z,100749.00
2023-05-09T10:51:16.499Z,100748.84
2023-05-09T10:53:46.067Z,100742.94
2023-05-09T10:56:26.732Z,100738.59
2023-05-09T10:58:55.194Z,100729.59
2023-05-09T11:01:35.615Z,100734.03
2023-05-09T11:04:09.816Z,100736.69
2023-05-09T11:06:49.555Z,100730.78
2023-05-09T11:09:28.898Z,100735.34
2023-05-09T11:11:59.568Z,100738.19
2023-05-09T11:14:31.786Z,100736.00
2023-05-09T11:17:01.024Z,100718.44
2023-05-09T11:19:36.806Z,100721.97
2023-05-09T11:22:14.174Z,100715.03
2023-05-09T11:24:47.012Z,100717.59
2023-05-09T11:27:21.513Z,100718.78
2023-05-09T11:29:52.769Z,100708.31
2023-05-09T11:32:21.594Z,100707.63
2023-05-09T11:34:51.111Z,100702.91
2023-05-09T11:37:19.456Z,100695.00
2023-05-09T11:39:58.855Z,100691.22
2023-05-09T11:42:29.465Z,100702.00
2023-05-09T11:44:58.592Z,100696.41
2023-05-09T11:47:28.881Z,100680.50
2023-05-09T11:49:56.901Z,100679.44
2023-05-09T11:52:25.822Z,100681.78
2023-05-09T11:54:53.750Z,100677.19
2023-05-09T11:57:22.320Z,100679.38
2023-05-09T11:59:52.262Z,100687.44
2023-05-09T12:02:20.318Z,100686.88
2023-05-09T12:04:48.547Z,100679.53
2023-05-09T12:07:17.256Z,100685.38
2023-05-09T12:09:45.271Z,100687.91
2023-05-09T12:12:14.426Z,100682.75
2023-05-09T12:14:42.730Z,100679.22
2023-05-09T12:17:12.295Z,100668.41
2023-05-09T12:19:40.501Z,100681.53
2023-05-09T12:22:09.950Z,100670.22
2023-05-09T12:24:38.210Z,100670.69
2023-05-09T12:27:07.945Z,100662.25
2023-05-09T12:29:36.630Z,100669.16
2023-05-09T12:32:04.712Z,100662.25
2023-05-09T12:34:34.259Z,100660.44
2023-05-09T12:37:03.759Z,100658.38
2023-05-09T12:39:31.882Z,100649.84
2023-05-09T12:42:01.960Z,100657.97
2023-05-09T12:44:30.367Z,100658.97
2023-05-09T12:46:59.784Z,100656.50
2023-05-09T12:49:28.272Z,100650.34
2023-05-09T12:52:01.662Z,100654.69
2023-05-09T12:54:31.234Z,100652.47
2023-05-09T12:56:59.783Z,100655.53
2023-05-09T12:59:29.033Z,100662.47
2023-05-09T13:01:59.040Z,100653.44
2023-05-09T13:04:28.150Z,100654.50
2023-05-09T13:07:00.054Z,100644.47
2023-05-09T13:09:28.717Z,100643.47
2023-05-09T13:11:56.889Z,100635.06
2023-05-09T13:14:25.340Z,100642.84
2023-05-09T13:16:53.288Z,100639.47
2023-05-09T13:19:21.563Z,100639.81
2023-05-09T13:21:49.609Z,100634.06
2023-05-09T13:24:18.962Z,100640.66
2023-05-09T13:26:46.888Z,100641.81
2023-05-09T13:29:15.079Z,100637.91
2023-05-09T13:31:43.182Z,100635.72
2023-05-09T13:34:11.115Z,100643.63
2023-05-09T13:36:38.935Z,100638.06
2023-05-09T13:39:06.743Z,100640.44
2023-05-09T13:41:38.150Z,100638.28
2023-05-09T13:44:06.577Z,100640.00
2023-05-09T13:46:35.080Z,100639.47
2023-05-09T13:49:03.075Z,100632.69
2023-05-09T13:51:31.039Z,100628.25
2023-05-09T13:53:58.884Z,100632.50
2023-05-09T13:56:26.868Z,100626.97
2023-05-09T13:58:56.113Z,100634.41
2023-05-09T14:01:24.194Z,100628.69
2023-05-09T14:03:52.542Z,100631.28
2023-05-09T14:06:20.542Z,100621.88
2023-05-09T14:08:48.567Z,100631.09
2023-05-09T14:11:16.541Z,100623.41
2023-05-09T14:13:44.717Z,100619.31
2023-05-09T14:16:14.685Z,100607.09
2023-05-09T14:18:42.725Z,100608.91
2023-05-09T14:21:10.725Z,100609.47
2023-05-09T14:23:38.633Z,100613.03
2023-05-09T14:26:06.731Z,100621.81
2023-05-09T14:28:34.637Z,100622.28
2023-05-09T14:31:03.342Z,100625.16
2023-05-09T14:33:34.929Z,100636.94
2023-05-09T14:36:04.206Z,100649.16
2023-05-09T14:38:33.369Z,100647.66
2023-05-09T14:41:02.382Z,100653.09
2023-05-09T14:43:30.454Z,100647.66
2023-05-09T14:45:58.509Z,100654.63
2023-05-09T14:48:26.525Z,100662.91
2023-05-09T14:50:57.042Z,100662.94
2023-05-09T14:53:25.473Z,100669.69
2023-05-09T14:55:53.485Z,100669.84
2023-05-09T14:58:22.288Z,100674.91
2023-05-09T15:00:53.027Z,100684.84
2023-05-09T15:03:21.206Z,100680.06
2023-05-09T15:05:50.496Z,100684.78
2023-05-09T15:08:20.101Z,100679.19
2023-05-09T15:10:48.562Z,100681.13
2023-05-09T15:13:16.715Z,100680.72
2023-05-09T15:15:44.665Z,100679.69
2023-05-09T15:18:13.451Z,100685.88
2023-05-09T15:20:41.951Z,100683.59
2023-05-09T15:23:10.116Z,100682.88
2023-05-09T15:25:41.569Z,100679.19
2023-05-09T15:28:09.520Z,100681.94
2023-05-09T15:30:39.261Z,100683.00
2023-05-09T15:33:07.325Z,100686.34
2023-05-09T15:35:35.366Z,100688.91
2023-05-09T15:38:03.437Z,100700.53
2023-05-09T15:40:31.532Z,100686.16
2023-05-09T15:43:07.392Z,100698.09
2023-05-09T15:45:37.911Z,100686.16
2023-05-09T15:48:06.520Z,100685.53
2023-05-09T15:50:34.514Z,100681.50
2023-05-09T15:53:02.468Z,100680.38
2023-05-09T15:55:32.853Z,100686.47
2023-05-09T15:58:03.060Z,100684.72
2023-05-09T16:00:31.243Z,100683.59
2023-05-09T16:02:59.697Z,100687.00
2023-05-09T16:05:27.996Z,100682.66
2023-05-09T16:07:56.101Z,100684.91
2023-05-09T16:10:24.144Z,100686.38
2023-05-09T16:12:52.265Z,100693.16
2023-05-09T16:15:22.785Z,100695.50
2023-05-09T16:17:50.860Z,100699.53
2023-05-09T16:20:18.977Z,100697.19
2023-05-09T16:22:46.941Z,100706.50
2023-05-09T16:25:15.011Z,100701.59
2023-05-09T16:27:43.200Z,100714.03
2023-05-09T16:30:11.967Z,100705.25
2023-05-09T16:32:42.455Z,100717.44
2023-05-09T16:35:11.032Z,100716.97
2023-05-09T16:37:39.532Z,100718.81
2023-05-09T16:40:08.498Z,100720.50
2023-05-09T16:42:36.700Z,100717.81
2023-05-09T16:45:05.460Z,100732.47
2023-05-09T16:47:33.676Z,100726.22
2023-05-09T16:50:03.163Z,100734.94
2023-05-09T16:52:31.384Z,100737.22
2023-05-09T16:55:01.350Z,100741.22
2023-05-09T16:57:29.332Z,100741.81
2023-05-09T16:59:58.558Z,100746.81
2023-05-09T17:02:26.707Z,100727.56
2023-05-09T17:04:54.939Z,100734.69
2023-05-09T17:07:24.465Z,100748.22
2023-05-09T17:09:55.265Z,100748.59
2023-05-09T17:12:23.594Z,100735.78
2023-05-09T17:14:51.674Z,100740.03
2023-05-09T17:17:19.949Z,100761.66
2023-05-09T17:19:48.732Z,100736.22
2023-05-09T17:22:17.120Z,100738.78
2023-05-09T17:24:46.744Z,100749.47
2023-05-09T17:27:15.273Z,100760.13
2023-05-09T17:29:43.409Z,100762.50
2023-05-09T17:32:12.334Z,100759.78
2023-05-09T17:34:41.003Z,100763.38
2023-05-09T17:40:00.407Z,100767.69
2023-05-09T17:42:32.883Z,100760.88
2023-05-09T17:45:01.037Z,100762.72
2023-05-09T17:47:29.238Z,100766.72
2023-05-09T17:49:57.498Z,100769.56
2023-05-09T17:52:25.792Z,100769.56
2023-05-09T17:54:55.486Z,100775.66
2023-05-09T17:57:23.672Z,100784.06
2023-05-09T17:59:52.313Z,100769.44
2023-05-09T18:02:24.066Z,100782.25
2023-05-09T18:04:53.635Z,100780.59
2023-05-09T18:07:21.625Z,100787.53
2023-05-09T18:09:49.813Z,100794.28
2023-05-09T18:12:19.418Z,100798.69
2023-05-09T18:14:47.762Z,100791.88
2023-05-09T18:17:15.967Z,100802.97
2023-05-09T18:19:43.965Z,100802.72
2023-05-09T18:22:12.113Z,100806.44
2023-05-09T18:24:40.123Z,100814.69
2023-05-09T18:27:08.193Z,100812.97
2023-05-09T18:29:37.856Z,100806.84
2023-05-09T18:32:06.922Z,100824.16
2023-05-09T18:34:34.920Z,100816.88
2023-05-09T18:37:03.011Z,100826.59
2023-05-09T18:39:31.093Z,100818.28
2023-05-09T18:41:59.152Z,100816.44
2023-05-09T18:44:27.253Z,100833.44
2023-05-09T18:46:58.038Z,100813.44
2023-05-09T18:49:26.389Z,100820.72
2023-05-09T18:51:55.144Z,100819.09
2023-05-09T18:54:23.523Z,100820.28
2023-05-09T18:56:51.552Z,100816.94
2023-05-09T18:59:19.621Z,100827.00
2023-05-09T19:01:47.566Z,100832.31
2023-05-09T19:04:19.667Z,100828.19
2023-05-09T19:06:47.986Z,100826.09
2023-05-09T19:09:15.985Z,100841.25
2023-05-09T19:11:45.435Z,100830.66
2023-05-09T19:14:13.573Z,100834.47
2023-05-09T19:16:43.047Z,100832.72
2023-05-09T19:19:11.360Z,100836.84
2023-05-09T19:21:41.125Z,100836.31
2023-05-09T19:24:09.878Z,100842.38
2023-05-09T19:26:38.198Z,100850.53
2023-05-09T19:29:08.262Z,100875.56
2023-05-09T19:31:37.347Z,100860.31
2023-05-09T19:34:06.122Z,100857.25
2023-05-09T19:36:34.236Z,100848.84
2023-05-09T19:39:05.276Z,100854.84
2023-05-09T19:41:34.112Z,100857.00
2023-05-09T19:44:02.325Z,100858.59
2023-05-09T19:46:30.796Z,100862.59
2023-05-09T19:48:58.832Z,100861.03
2023-05-09T19:51:27.060Z,100864.19
2023-05-09T19:53:56.310Z,100858.63
2023-05-09T19:56:25.929Z,100867.44
2023-05-09T19:58:55.021Z,100864.03
2023-05-09T20:01:23.169Z,100870.28
2023-05-09T20:03:52.330Z,100866.31
2023-05-09T20:06:20.803Z,100881.78
2023-05-09T20:08:51.414Z,100873.47
2023-05-09T20:11:19.917Z,100877.00
2023-05-09T20:13:49.456Z,100888.75
2023-05-09T20:16:17.834Z,100889.63
2023-05-09T20:18:46.061Z,100884.22
2023-05-09T20:21:14.861Z,100877.00
2023-05-09T20:23:42.983Z,100895.53
2023-05-09T20:26:11.424Z,100897.81
2023-05-09T20:28:39.699Z,100893.28
2023-05-09T20:31:09.195Z,100898.81
2023-05-09T20:33:37.386Z,100899.66
2023-05-09T20:36:09.952Z,100904.78
2023-05-09T20:38:38.749Z,100905.59
2023-05-09T20:41:06.805Z,100909.44
2023-05-09T20:43:34.877Z,100913.00
2023-05-09T20:46:02.962Z,100925.31
2023-05-09T20:48:32.777Z,100916.53
2023-05-09T20:51:00.900Z,100920.06
2023-05-09T20:53:31.759Z,100934.38
2023-05-09T20:56:00.144Z,100932.25
2023-05-09T20:58:28.301Z,100931.25
2023-05-09T21:00:56.524Z,100932.09
2023-05-09T21:03:24.687Z,100926.00
2023-05-09T21:05:55.246Z,100928.00
2023-05-09T21:08:24.143Z,100930.53
2023-05-09T21:10:54.407Z,100936.94
2023-05-09T21:13:22.652Z,100927.84
2023-05-09T21:15:51.294Z,100932.25
2023-05-09T21:18:20.237Z,100933.53
2023-05-09T21:20:48.665Z,100938.19
2023-05-09T21:23:19.120Z,100942.16
2023-05-09T21:25:47.349Z,100940.91
2023-05-09T21:28:17.463Z,100933.16
2023-05-09T21:30:45.725Z,100941.22
2023-05-09T21:33:13.947Z,100934.59
2023-05-09T21:35:41.955Z,100945.34
2023-05-09T21:38:10.243Z,100942.94
2023-05-09T21:40:40.708Z,100942.09
2023-05-09T21:43:09.077Z,100940.69
2023-05-09T21:45:37.317Z,100940.81
2023-05-09T21:48:05.872Z,100942.69
2023-05-09T21:50:33.984Z,100953.97
2023-05-09T21:53:01.984Z,100946.91
2023-05-09T21:55:29.920Z,100946.66
2023-05-09T21:57:59.330Z,100944.94
2023-05-09T22:00:27.350Z,100950.88
2023-05-09T22:02:55.410Z,100948.19
2023-05-09T22:05:24.872Z,100957.81
2023-05-09T22:07:52.852Z,100954.41
2023-05-09T22:10:22.384Z,100952.56
2023-05-09T22:12:50.591Z,100951.72
2023-05-09T22:15:20.474Z,100960.78
2023-05-09T22:17:48.543Z,100957.09
2023-05-09T22:20:17.208Z,100954.56
2023-05-09T22:22:45.690Z,100955.81
2023-05-09T22:25:13.676Z,100951.69
2023-05-09T22:27:41.776Z,100957.34
2023-05-09T22:30:12.503Z,100957.03
2023-05-09T22:32:42.351Z,100954.34
2023-05-09T22:35:12.008Z,100954.06
2023-05-09T22:37:40.354Z,100955.31
2023-05-09T22:40:09.619Z,100960.88
2023-05-09T22:42:37.644Z,100959.69
2023-05-09T22:45:06.601Z,100959.88
2023-05-09T22:47:34.907Z,100959.03
2023-05-09T22:50:04.353Z,100956.16
2023-05-09T22:52:32.262Z,100965.25
2023-05-09T22:55:00.229Z,100970.34
2023-05-09T22:57:28.139Z,100963.84
2023-05-09T22:59:56.597Z,100966.09
2023-05-09T23:02:24.712Z,100969.47
2023-05-09T23:04:52.850Z,100962.41
2023-05-09T23:07:22.401Z,100963.25
2023-05-09T23:09:50.922Z,100968.78
2023-05-09T23:12:19.926Z,100965.94
2023-05-09T23:14:48.384Z,100968.22
2023-05-09T23:17:16.470Z,100966.25
2023-05-09T23:19:44.961Z,100975.16
2023-05-09T23:22:13.959Z,100971.19
2023-05-09T23:24:43.799Z,100970.34
2023-05-09T23:27:11.960Z,100966.06
2023-05-09T23:29:39.987Z,100965.38
2023-05-09T23:32:08.003Z,100966.22
2023-05-09T23:34:37.016Z,100968.06
2023-05-09T23:37:05.373Z,100966.06
2023-05-09T23:39:33.999Z,100965.22
2023-05-09T23:42:04.179Z,100965.38
2023-05-09T23:44:32.329Z,100978.94
2023-05-09T23:47:02.242Z,100963.25
2023-05-09T23:49:30.344Z,100958.03
2023-05-09T23:51:58.357Z,100962.28
2023-05-09T23:54:27.083Z,100956.88
2023-05-09T23:56:56.416Z,100968.63
2023-05-09T23:59:25.952Z,100961.88
